sensor_id;sensor_type;location;lat;lon;timestamp;temperature;humidity
9975;DHT22;5028;50.974;4.968;2022-07-15T00:01:18;14.50;99.90
9975;DHT22;5028;50.974;4.968;2022-07-15T00:03:53;14.50;99.90
9975;DHT22;5028;50.974;4.968;2022-07-15T00:06:21;14.50;99.90
9975;DHT22;5028;50.974;4.968;2022-07-15T00:08:55;14.40;99.90
9975;DHT22;5028;50.974;4.968;2022-07-15T00:11:23;14.40;99.90
9975;DHT22;5028;50.974;4.968;2022-07-15T00:13:58;14.30;99.90
9975;DHT22;5028;50.974;4.968;2022-07-15T00:16:30;14.30;99.90
9975;DHT22;5028;50.974;4.968;2022-07-15T00:19:05;14.30;99.90
9975;DHT22;5028;50.974;4.968;2022-07-15T00:21:34;14.20;99.90
9975;DHT22;5028;50.974;4.968;2022-07-15T00:24:15;14.20;99.90
9975;DHT22;5028;50.974;4.968;2022-07-15T00:26:43;14.20;99.90
9975;DHT22;5028;50.974;4.968;2022-07-15T00:29:18;14.20;99.90
9975;DHT22;5028;50.974;4.968;2022-07-15T00:31:48;14.20;99.90
9975;DHT22;5028;50.974;4.968;2022-07-15T00:34:23;14.20;99.90
9975;DHT22;5028;50.974;4.968;2022-07-15T00:36:51;14.10;99.90
9975;DHT22;5028;50.974;4.968;2022-07-15T00:39:25;14.10;99.90
9975;DHT22;5028;50.974;4.968;2022-07-15T00:41:54;14.00;99.90
9975;DHT22;5028;50.974;4.968;2022-07-15T00:44:28;14.00;99.90
9975;DHT22;5028;50.974;4.968;2022-07-15T00:46:58;14.00;99.90
9975;DHT22;5028;50.974;4.968;2022-07-15T00:49:33;14.00;99.90
9975;DHT22;5028;50.974;4.968;2022-07-15T00:52:03;13.90;99.90
9975;DHT22;5028;50.974;4.968;2022-07-15T00:54:39;13.90;99.90
9975;DHT22;5028;50.974;4.968;2022-07-15T00:57:07;13.90;99.90
9975;DHT22;5028;50.974;4.968;2022-07-15T00:59:42;13.90;99.90
9975;DHT22;5028;50.974;4.968;2022-07-15T01:02:14;13.90;99.90
9975;DHT22;5028;50.974;4.968;2022-07-15T01:04:49;13.90;99.90
9975;DHT22;5028;50.974;4.968;2022-07-15T01:07:18;13.90;99.90
9975;DHT22;5028;50.974;4.968;2022-07-15T01:09:52;13.90;99.90
9975;DHT22;5028;50.974;4.968;2022-07-15T01:12:21;13.90;99.90
9975;DHT22;5028;50.974;4.968;2022-07-15T01:14:56;13.80;99.90
9975;DHT22;5028;50.974;4.968;2022-07-15T01:17:26;13.80;99.90
9975;DHT22;5028;50.974;4.968;2022-07-15T01:20:06;13.80;99.90
9975;DHT22;5028;50.974;4.968;2022-07-15T01:22:36;13.70;99.90
9975;DHT22;5028;50.974;4.968;2022-07-15T01:25:18;13.70;99.90
9975;DHT22;5028;50.974;4.968;2022-07-15T01:27:47;13.70;99.90
9975;DHT22;5028;50.974;4.968;2022-07-15T01:30:21;13.70;99.90
9975;DHT22;5028;50.974;4.968;2022-07-15T01:32:50;13.70;99.90
9975;DHT22;5028;50.974;4.968;2022-07-15T01:35:24;13.60;99.90
9975;DHT22;5028;50.974;4.968;2022-07-15T01:37:54;13.60;99.90
9975;DHT22;5028;50.974;4.968;2022-07-15T01:40:30;13.50;99.90
9975;DHT22;5028;50.974;4.968;2022-07-15T01:42:58;13.50;99.90
9975;DHT22;5028;50.974;4.968;2022-07-15T01:45:32;13.50;99.90
9975;DHT22;5028;50.974;4.968;2022-07-15T01:48:01;13.40;99.90
9975;DHT22;5028;50.974;4.968;2022-07-15T01:50:35;13.30;99.90
9975;DHT22;5028;50.974;4.968;2022-07-15T01:53:06;13.30;99.90
9975;DHT22;5028;50.974;4.968;2022-07-15T01:55:41;13.30;99.90
9975;DHT22;5028;50.974;4.968;2022-07-15T01:58:09;13.30;99.90
9975;DHT22;5028;50.974;4.968;2022-07-15T02:00:43;13.30;99.90
9975;DHT22;5028;50.974;4.968;2022-07-15T02:03:12;13.30;99.90
9975;DHT22;5028;50.974;4.968;2022-07-15T02:05:47;13.30;99.90
9975;DHT22;5028;50.974;4.968;2022-07-15T02:08:16;13.30;99.90
9975;DHT22;5028;50.974;4.968;2022-07-15T02:10:51;13.40;99.90
9975;DHT22;5028;50.974;4.968;2022-07-15T02:13:19;13.30;99.90
9975;DHT22;5028;50.974;4.968;2022-07-15T02:15:54;13.20;99.90
9975;DHT22;5028;50.974;4.968;2022-07-15T02:18:22;13.20;99.90
9975;DHT22;5028;50.974;4.968;2022-07-15T02:21:03;13.10;99.90
9975;DHT22;5028;50.974;4.968;2022-07-15T02:23:46;13.10;99.90
9975;DHT22;5028;50.974;4.968;2022-07-15T02:26:21;13.10;99.90
9975;DHT22;5028;50.974;4.968;2022-07-15T02:28:50;13.10;99.90
9975;DHT22;5028;50.974;4.968;2022-07-15T02:31:25;13.10;99.90
9975;DHT22;5028;50.974;4.968;2022-07-15T02:33:53;13.00;99.90
9975;DHT22;5028;50.974;4.968;2022-07-15T02:36:28;13.00;99.90
9975;DHT22;5028;50.974;4.968;2022-07-15T02:38:58;13.00;99.90
9975;DHT22;5028;50.974;4.968;2022-07-15T02:41:33;13.00;99.90
9975;DHT22;5028;50.974;4.968;2022-07-15T02:44:01;13.00;99.90
9975;DHT22;5028;50.974;4.968;2022-07-15T02:46:37;12.90;99.90
9975;DHT22;5028;50.974;4.968;2022-07-15T02:49:05;12.90;99.90
9975;DHT22;5028;50.974;4.968;2022-07-15T02:51:40;12.90;99.90
9975;DHT22;5028;50.974;4.968;2022-07-15T02:54:09;12.80;99.90
9975;DHT22;5028;50.974;4.968;2022-07-15T02:56:45;12.90;99.90
9975;DHT22;5028;50.974;4.968;2022-07-15T02:59:13;12.80;99.90
9975;DHT22;5028;50.974;4.968;2022-07-15T03:01:48;12.80;99.90
9975;DHT22;5028;50.974;4.968;2022-07-15T03:04:16;12.80;99.90
9975;DHT22;5028;50.974;4.968;2022-07-15T03:06:50;12.80;99.90
9975;DHT22;5028;50.974;4.968;2022-07-15T03:09:20;12.80;99.90
9975;DHT22;5028;50.974;4.968;2022-07-15T03:11:54;12.70;99.90
9975;DHT22;5028;50.974;4.968;2022-07-15T03:14:23;12.70;99.90
9975;DHT22;5028;50.974;4.968;2022-07-15T03:16:58;12.70;99.90
9975;DHT22;5028;50.974;4.968;2022-07-15T03:19:26;12.70;99.90
9975;DHT22;5028;50.974;4.968;2022-07-15T03:22:07;12.70;99.90
9975;DHT22;5028;50.974;4.968;2022-07-15T03:24:37;12.60;99.90
9975;DHT22;5028;50.974;4.968;2022-07-15T03:27:12;12.60;99.90
9975;DHT22;5028;50.974;4.968;2022-07-15T03:29:42;12.60;99.90
9975;DHT22;5028;50.974;4.968;2022-07-15T03:32:17;12.60;99.90
9975;DHT22;5028;50.974;4.968;2022-07-15T03:34:48;12.60;99.90
9975;DHT22;5028;50.974;4.968;2022-07-15T03:37:23;12.60;99.90
9975;DHT22;5028;50.974;4.968;2022-07-15T03:39:52;12.60;99.90
9975;DHT22;5028;50.974;4.968;2022-07-15T03:42:27;12.60;99.90
9975;DHT22;5028;50.974;4.968;2022-07-15T03:44:55;12.60;99.90
9975;DHT22;5028;50.974;4.968;2022-07-15T03:47:30;12.60;99.90
9975;DHT22;5028;50.974;4.968;2022-07-15T03:49:58;12.60;99.90
9975;DHT22;5028;50.974;4.968;2022-07-15T03:52:33;12.60;99.90
9975;DHT22;5028;50.974;4.968;2022-07-15T03:55:02;12.60;99.90
9975;DHT22;5028;50.974;4.968;2022-07-15T03:57:37;12.50;99.90
9975;DHT22;5028;50.974;4.968;2022-07-15T04:00:08;12.50;99.90
9975;DHT22;5028;50.974;4.968;2022-07-15T04:02:43;12.50;99.90
9975;DHT22;5028;50.974;4.968;2022-07-15T04:05:17;12.50;99.90
9975;DHT22;5028;50.974;4.968;2022-07-15T04:07:52;12.40;99.90
9975;DHT22;5028;50.974;4.968;2022-07-15T04:10:21;12.40;99.90
9975;DHT22;5028;50.974;4.968;2022-07-15T04:12:56;12.40;99.90
9975;DHT22;5028;50.974;4.968;2022-07-15T04:15:24;12.40;99.90
9975;DHT22;5028;50.974;4.968;2022-07-15T04:17:59;12.50;99.90
9975;DHT22;5028;50.974;4.968;2022-07-15T04:20:28;12.50;99.90
9975;DHT22;5028;50.974;4.968;2022-07-15T04:23:03;12.50;99.90
9975;DHT22;5028;50.974;4.968;2022-07-15T04:25:39;12.60;99.90
9975;DHT22;5028;50.974;4.968;2022-07-15T04:28:18;12.70;99.90
9975;DHT22;5028;50.974;4.968;2022-07-15T04:30:46;12.70;99.90
9975;DHT22;5028;50.974;4.968;2022-07-15T04:33:21;12.70;99.90
9975;DHT22;5028;50.974;4.968;2022-07-15T04:35:50;12.80;99.90
9975;DHT22;5028;50.974;4.968;2022-07-15T04:38:25;12.80;99.90
9975;DHT22;5028;50.974;4.968;2022-07-15T04:40:54;12.80;99.90
9975;DHT22;5028;50.974;4.968;2022-07-15T04:43:29;12.90;99.90
9975;DHT22;5028;50.974;4.968;2022-07-15T04:45:57;12.90;99.90
9975;DHT22;5028;50.974;4.968;2022-07-15T04:48:32;12.90;99.90
9975;DHT22;5028;50.974;4.968;2022-07-15T04:51:17;13.00;99.90
9975;DHT22;5028;50.974;4.968;2022-07-15T04:53:52;13.00;99.90
9975;DHT22;5028;50.974;4.968;2022-07-15T04:56:21;13.10;99.90
9975;DHT22;5028;50.974;4.968;2022-07-15T04:58:56;13.10;99.90
9975;DHT22;5028;50.974;4.968;2022-07-15T05:01:24;13.10;99.90
9975;DHT22;5028;50.974;4.968;2022-07-15T05:03:59;13.10;99.90
9975;DHT22;5028;50.974;4.968;2022-07-15T05:06:28;13.20;99.90
9975;DHT22;5028;50.974;4.968;2022-07-15T05:09:03;13.20;99.90
9975;DHT22;5028;50.974;4.968;2022-07-15T05:11:32;13.20;99.90
9975;DHT22;5028;50.974;4.968;2022-07-15T05:14:07;13.30;99.90
9975;DHT22;5028;50.974;4.968;2022-07-15T05:16:35;13.40;99.90
9975;DHT22;5028;50.974;4.968;2022-07-15T05:19:10;13.40;99.90
9975;DHT22;5028;50.974;4.968;2022-07-15T05:21:45;13.40;99.90
9975;DHT22;5028;50.974;4.968;2022-07-15T05:24:20;13.40;99.90
9975;DHT22;5028;50.974;4.968;2022-07-15T05:26:57;13.50;99.90
9975;DHT22;5028;50.974;4.968;2022-07-15T05:29:33;13.50;99.90
9975;DHT22;5028;50.974;4.968;2022-07-15T05:32:01;13.50;99.90
9975;DHT22;5028;50.974;4.968;2022-07-15T05:34:36;13.50;99.90
9975;DHT22;5028;50.974;4.968;2022-07-15T05:37:04;13.60;99.90
9975;DHT22;5028;50.974;4.968;2022-07-15T05:39:39;13.60;99.90
9975;DHT22;5028;50.974;4.968;2022-07-15T05:42:22;13.70;99.90
9975;DHT22;5028;50.974;4.968;2022-07-15T05:44:57;13.90;99.90
9975;DHT22;5028;50.974;4.968;2022-07-15T05:47:25;14.00;99.90
9975;DHT22;5028;50.974;4.968;2022-07-15T05:50:00;14.10;99.90
9975;DHT22;5028;50.974;4.968;2022-07-15T05:52:28;14.20;99.90
9975;DHT22;5028;50.974;4.968;2022-07-15T05:55:03;14.30;99.90
9975;DHT22;5028;50.974;4.968;2022-07-15T05:57:33;14.40;99.90
9975;DHT22;5028;50.974;4.968;2022-07-15T06:00:12;14.60;99.90
9975;DHT22;5028;50.974;4.968;2022-07-15T06:02:41;14.80;99.90
9975;DHT22;5028;50.974;4.968;2022-07-15T06:05:16;14.90;99.90
9975;DHT22;5028;50.974;4.968;2022-07-15T06:07:47;15.10;99.90
9975;DHT22;5028;50.974;4.968;2022-07-15T06:10:22;15.40;99.90
9975;DHT22;5028;50.974;4.968;2022-07-15T06:12:52;15.50;99.90
9975;DHT22;5028;50.974;4.968;2022-07-15T06:15:27;15.60;99.90
9975;DHT22;5028;50.974;4.968;2022-07-15T06:17:55;15.70;99.90
9975;DHT22;5028;50.974;4.968;2022-07-15T06:20:30;15.80;99.90
9975;DHT22;5028;50.974;4.968;2022-07-15T06:23:04;15.80;99.90
9975;DHT22;5028;50.974;4.968;2022-07-15T06:25:39;15.90;99.90
9975;DHT22;5028;50.974;4.968;2022-07-15T06:28:10;16.10;99.90
9975;DHT22;5028;50.974;4.968;2022-07-15T06:30:47;16.20;99.90
9975;DHT22;5028;50.974;4.968;2022-07-15T06:33:15;16.40;99.90
9975;DHT22;5028;50.974;4.968;2022-07-15T06:35:50;16.40;99.90
9975;DHT22;5028;50.974;4.968;2022-07-15T06:38:18;16.70;99.90
9975;DHT22;5028;50.974;4.968;2022-07-15T06:40:53;16.80;99.90
9975;DHT22;5028;50.974;4.968;2022-07-15T06:43:23;16.90;99.90
9975;DHT22;5028;50.974;4.968;2022-07-15T06:45:58;16.70;99.90
9975;DHT22;5028;50.974;4.968;2022-07-15T06:48:27;16.60;99.90
9975;DHT22;5028;50.974;4.968;2022-07-15T06:51:04;16.70;99.90
9975;DHT22;5028;50.974;4.968;2022-07-15T06:53:32;16.70;99.90
9975;DHT22;5028;50.974;4.968;2022-07-15T06:56:07;16.70;99.90
9975;DHT22;5028;50.974;4.968;2022-07-15T06:58:37;16.70;99.90
9975;DHT22;5028;50.974;4.968;2022-07-15T07:01:12;16.70;99.90
9975;DHT22;5028;50.974;4.968;2022-07-15T07:03:41;16.80;99.90
9975;DHT22;5028;50.974;4.968;2022-07-15T07:06:26;16.80;99.90
9975;DHT22;5028;50.974;4.968;2022-07-15T07:08:54;16.80;99.90
9975;DHT22;5028;50.974;4.968;2022-07-15T07:11:29;16.70;99.90
9975;DHT22;5028;50.974;4.968;2022-07-15T07:13:59;16.70;99.90
9975;DHT22;5028;50.974;4.968;2022-07-15T07:16:34;16.80;99.90
9975;DHT22;5028;50.974;4.968;2022-07-15T07:19:02;17.00;99.90
9975;DHT22;5028;50.974;4.968;2022-07-15T07:21:37;17.00;99.90
9975;DHT22;5028;50.974;4.968;2022-07-15T07:24:21;17.20;99.90
9975;DHT22;5028;50.974;4.968;2022-07-15T07:26:56;17.10;99.90
9975;DHT22;5028;50.974;4.968;2022-07-15T07:29:33;17.10;99.90
9975;DHT22;5028;50.974;4.968;2022-07-15T07:32:08;17.10;99.90
9975;DHT22;5028;50.974;4.968;2022-07-15T07:34:36;17.00;99.90
9975;DHT22;5028;50.974;4.968;2022-07-15T07:37:11;17.10;99.90
9975;DHT22;5028;50.974;4.968;2022-07-15T07:39:39;17.20;99.90
9975;DHT22;5028;50.974;4.968;2022-07-15T07:42:16;17.30;99.90
9975;DHT22;5028;50.974;4.968;2022-07-15T07:44:46;17.40;99.90
9975;DHT22;5028;50.974;4.968;2022-07-15T07:47:21;17.50;99.90
9975;DHT22;5028;50.974;4.968;2022-07-15T07:49:49;17.70;99.90
9975;DHT22;5028;50.974;4.968;2022-07-15T07:52:24;17.80;99.90
9975;DHT22;5028;50.974;4.968;2022-07-15T07:54:54;17.90;99.90
9975;DHT22;5028;50.974;4.968;2022-07-15T07:57:29;18.00;99.90
9975;DHT22;5028;50.974;4.968;2022-07-15T07:59:59;18.00;99.90
9975;DHT22;5028;50.974;4.968;2022-07-15T08:02:34;18.20;99.90
9975;DHT22;5028;50.974;4.968;2022-07-15T08:05:03;18.40;99.90
9975;DHT22;5028;50.974;4.968;2022-07-15T08:07:38;18.70;99.90
9975;DHT22;5028;50.974;4.968;2022-07-15T08:10:07;18.80;99.90
9975;DHT22;5028;50.974;4.968;2022-07-15T08:12:42;19.00;99.90
9975;DHT22;5028;50.974;4.968;2022-07-15T08:15:12;19.30;99.90
9975;DHT22;5028;50.974;4.968;2022-07-15T08:17:48;19.60;99.90
9975;DHT22;5028;50.974;4.968;2022-07-15T08:20:16;19.60;99.90
9975;DHT22;5028;50.974;4.968;2022-07-15T08:22:51;19.80;99.90
9975;DHT22;5028;50.974;4.968;2022-07-15T08:25:29;19.90;99.90
9975;DHT22;5028;50.974;4.968;2022-07-15T08:28:05;20.10;99.90
9975;DHT22;5028;50.974;4.968;2022-07-15T08:30:35;19.90;99.90
9975;DHT22;5028;50.974;4.968;2022-07-15T08:33:12;20.00;99.90
9975;DHT22;5028;50.974;4.968;2022-07-15T08:35:40;20.30;99.90
9975;DHT22;5028;50.974;4.968;2022-07-15T08:38:15;20.30;99.90
9975;DHT22;5028;50.974;4.968;2022-07-15T08:40:43;20.10;99.90
9975;DHT22;5028;50.974;4.968;2022-07-15T08:43:20;19.70;99.90
9975;DHT22;5028;50.974;4.968;2022-07-15T08:45:50;19.90;99.90
9975;DHT22;5028;50.974;4.968;2022-07-15T08:48:31;19.90;99.90
9975;DHT22;5028;50.974;4.968;2022-07-15T08:51:04;19.80;99.90
9975;DHT22;5028;50.974;4.968;2022-07-15T08:53:39;20.00;99.90
9975;DHT22;5028;50.974;4.968;2022-07-15T08:56:07;19.70;99.90
9975;DHT22;5028;50.974;4.968;2022-07-15T08:58:42;20.10;99.90
9975;DHT22;5028;50.974;4.968;2022-07-15T09:01:29;20.60;99.90
9975;DHT22;5028;50.974;4.968;2022-07-15T09:04:04;20.80;99.90
9975;DHT22;5028;50.974;4.968;2022-07-15T09:06:34;20.20;99.90
9975;DHT22;5028;50.974;4.968;2022-07-15T09:09:23;20.00;99.90
9975;DHT22;5028;50.974;4.968;2022-07-15T09:11:56;19.90;99.90
9975;DHT22;5028;50.974;4.968;2022-07-15T09:14:40;20.30;99.90
9975;DHT22;5028;50.974;4.968;2022-07-15T09:17:22;20.20;99.90
9975;DHT22;5028;50.974;4.968;2022-07-15T09:20:05;20.40;99.90
9975;DHT22;5028;50.974;4.968;2022-07-15T09:22:51;20.70;99.90
9975;DHT22;5028;50.974;4.968;2022-07-15T09:25:27;20.40;99.90
9975;DHT22;5028;50.974;4.968;2022-07-15T09:27:56;20.30;99.90
9975;DHT22;5028;50.974;4.968;2022-07-15T09:30:35;20.40;99.90
9975;DHT22;5028;50.974;4.968;2022-07-15T09:33:24;20.70;99.90
9975;DHT22;5028;50.974;4.968;2022-07-15T09:36:14;21.60;99.90
9975;DHT22;5028;50.974;4.968;2022-07-15T09:38:46;22.30;99.90
9975;DHT22;5028;50.974;4.968;2022-07-15T09:41:28;22.10;99.90
9975;DHT22;5028;50.974;4.968;2022-07-15T09:44:01;21.90;99.90
9975;DHT22;5028;50.974;4.968;2022-07-15T09:46:44;21.20;99.90
9975;DHT22;5028;50.974;4.968;2022-07-15T09:49:17;21.00;99.90
9975;DHT22;5028;50.974;4.968;2022-07-15T09:52:08;21.10;99.90
9975;DHT22;5028;50.974;4.968;2022-07-15T09:54:44;21.50;99.90
9975;DHT22;5028;50.974;4.968;2022-07-15T09:57:20;22.10;99.90
9975;DHT22;5028;50.974;4.968;2022-07-15T09:59:49;22.80;99.90
9975;DHT22;5028;50.974;4.968;2022-07-15T10:02:25;23.20;99.90
9975;DHT22;5028;50.974;4.968;2022-07-15T10:04:56;23.40;99.90
9975;DHT22;5028;50.974;4.968;2022-07-15T10:07:40;23.20;99.90
9975;DHT22;5028;50.974;4.968;2022-07-15T10:10:23;23.00;99.90
9975;DHT22;5028;50.974;4.968;2022-07-15T10:13:05;22.90;99.90
9975;DHT22;5028;50.974;4.968;2022-07-15T10:15:44;22.40;99.90
9975;DHT22;5028;50.974;4.968;2022-07-15T10:18:32;22.50;99.90
9975;DHT22;5028;50.974;4.968;2022-07-15T10:21:16;22.90;99.90
9975;DHT22;5028;50.974;4.968;2022-07-15T10:24:02;23.80;99.90
9975;DHT22;5028;50.974;4.968;2022-07-15T10:26:50;24.30;99.60
9975;DHT22;5028;50.974;4.968;2022-07-15T10:29:29;23.90;99.80
9975;DHT22;5028;50.974;4.968;2022-07-15T10:31:59;23.50;99.90
9975;DHT22;5028;50.974;4.968;2022-07-15T10:34:42;23.50;99.90
9975;DHT22;5028;50.974;4.968;2022-07-15T10:37:12;24.00;99.90
9975;DHT22;5028;50.974;4.968;2022-07-15T10:39:50;23.80;99.90
9975;DHT22;5028;50.974;4.968;2022-07-15T10:42:19;23.50;99.90
9975;DHT22;5028;50.974;4.968;2022-07-15T10:45:07;23.40;99.90
9975;DHT22;5028;50.974;4.968;2022-07-15T10:47:36;23.20;99.90
9975;DHT22;5028;50.974;4.968;2022-07-15T10:50:36;22.90;99.90
9975;DHT22;5028;50.974;4.968;2022-07-15T10:53:23;22.80;99.90
9975;DHT22;5028;50.974;4.968;2022-07-15T10:56:26;23.00;99.90
9975;DHT22;5028;50.974;4.968;2022-07-15T10:59:08;22.90;99.90
9975;DHT22;5028;50.974;4.968;2022-07-15T11:01:45;22.70;99.90
9975;DHT22;5028;50.974;4.968;2022-07-15T11:04:15;22.40;99.90
9975;DHT22;5028;50.974;4.968;2022-07-15T11:07:24;22.90;99.90
9975;DHT22;5028;50.974;4.968;2022-07-15T11:09:56;23.70;99.90
9975;DHT22;5028;50.974;4.968;2022-07-15T11:12:55;23.90;99.30
9975;DHT22;5028;50.974;4.968;2022-07-15T11:15:32;23.30;99.90
9975;DHT22;5028;50.974;4.968;2022-07-15T11:18:02;23.30;99.70
9975;DHT22;5028;50.974;4.968;2022-07-15T11:20:36;23.30;99.90
9975;DHT22;5028;50.974;4.968;2022-07-15T11:23:20;23.90;99.70
9975;DHT22;5028;50.974;4.968;2022-07-15T11:26:05;24.10;99.10
9975;DHT22;5028;50.974;4.968;2022-07-15T11:28:35;24.40;98.60
9975;DHT22;5028;50.974;4.968;2022-07-15T11:31:12;24.90;98.80
9975;DHT22;5028;50.974;4.968;2022-07-15T11:33:41;24.50;97.80
9975;DHT22;5028;50.974;4.968;2022-07-15T11:36:17;23.50;99.20
9975;DHT22;5028;50.974;4.968;2022-07-15T11:38:47;23.10;99.60
9975;DHT22;5028;50.974;4.968;2022-07-15T11:41:23;23.00;99.60
9975;DHT22;5028;50.974;4.968;2022-07-15T11:44:11;22.90;99.90
9975;DHT22;5028;50.974;4.968;2022-07-15T11:47:06;23.20;99.90
9975;DHT22;5028;50.974;4.968;2022-07-15T11:49:38;24.00;98.80
9975;DHT22;5028;50.974;4.968;2022-07-15T11:52:22;24.50;99.10
9975;DHT22;5028;50.974;4.968;2022-07-15T11:54:51;25.00;98.10
9975;DHT22;5028;50.974;4.968;2022-07-15T11:57:32;24.90;97.70
9975;DHT22;5028;50.974;4.968;2022-07-15T12:00:02;23.90;98.50
9975;DHT22;5028;50.974;4.968;2022-07-15T12:02:37;23.70;98.70
9975;DHT22;5028;50.974;4.968;2022-07-15T12:05:07;24.00;98.20
9975;DHT22;5028;50.974;4.968;2022-07-15T12:07:44;24.40;98.10
9975;DHT22;5028;50.974;4.968;2022-07-15T12:10:14;24.20;97.70
9975;DHT22;5028;50.974;4.968;2022-07-15T12:12:55;23.60;98.20
9975;DHT22;5028;50.974;4.968;2022-07-15T12:15:23;23.30;99.10
9975;DHT22;5028;50.974;4.968;2022-07-15T12:17:58;23.40;98.30
9975;DHT22;5028;50.974;4.968;2022-07-15T12:20:27;23.90;98.70
9975;DHT22;5028;50.974;4.968;2022-07-15T12:23:04;24.60;98.60
9975;DHT22;5028;50.974;4.968;2022-07-15T12:25:39;24.90;96.60
9975;DHT22;5028;50.974;4.968;2022-07-15T12:28:30;24.30;97.30
9975;DHT22;5028;50.974;4.968;2022-07-15T12:30:59;24.00;97.10
9975;DHT22;5028;50.974;4.968;2022-07-15T12:33:35;24.00;97.20
9975;DHT22;5028;50.974;4.968;2022-07-15T12:36:14;23.80;97.40
9975;DHT22;5028;50.974;4.968;2022-07-15T12:39:11;23.80;97.80
9975;DHT22;5028;50.974;4.968;2022-07-15T12:41:57;23.90;98.00
9975;DHT22;5028;50.974;4.968;2022-07-15T12:44:34;24.10;97.30
9975;DHT22;5028;50.974;4.968;2022-07-15T12:47:04;23.60;98.10
9975;DHT22;5028;50.974;4.968;2022-07-15T12:49:43;23.50;98.10
9975;DHT22;5028;50.974;4.968;2022-07-15T12:52:21;23.20;98.60
9975;DHT22;5028;50.974;4.968;2022-07-15T12:54:56;23.10;98.90
9975;DHT22;5028;50.974;4.968;2022-07-15T12:57:30;23.30;98.70
9975;DHT22;5028;50.974;4.968;2022-07-15T13:00:12;23.30;98.70
9975;DHT22;5028;50.974;4.968;2022-07-15T13:03:01;23.10;98.20
9975;DHT22;5028;50.974;4.968;2022-07-15T13:05:38;23.40;98.80
9975;DHT22;5028;50.974;4.968;2022-07-15T13:08:07;24.10;98.20
9975;DHT22;5028;50.974;4.968;2022-07-15T13:10:44;24.50;97.30
9975;DHT22;5028;50.974;4.968;2022-07-15T13:13:15;24.60;97.00
9975;DHT22;5028;50.974;4.968;2022-07-15T13:15:52;25.50;97.40
9975;DHT22;5028;50.974;4.968;2022-07-15T13:18:21;26.20;95.30
9975;DHT22;5028;50.974;4.968;2022-07-15T13:20:59;26.10;95.50
9975;DHT22;5028;50.974;4.968;2022-07-15T13:23:28;26.40;94.50
9975;DHT22;5028;50.974;4.968;2022-07-15T13:26:03;26.00;95.10
9975;DHT22;5028;50.974;4.968;2022-07-15T13:28:31;25.30;95.80
9975;DHT22;5028;50.974;4.968;2022-07-15T13:31:07;25.00;96.50
9975;DHT22;5028;50.974;4.968;2022-07-15T13:33:36;24.90;96.30
9975;DHT22;5028;50.974;4.968;2022-07-15T13:36:20;24.70;96.80
9975;DHT22;5028;50.974;4.968;2022-07-15T13:38:49;25.00;96.70
9975;DHT22;5028;50.974;4.968;2022-07-15T13:41:24;24.60;96.80
9975;DHT22;5028;50.974;4.968;2022-07-15T13:43:52;24.00;97.10
9975;DHT22;5028;50.974;4.968;2022-07-15T13:46:28;23.80;97.50
9975;DHT22;5028;50.974;4.968;2022-07-15T13:48:57;23.90;97.20
9975;DHT22;5028;50.974;4.968;2022-07-15T13:51:31;23.90;97.30
9975;DHT22;5028;50.974;4.968;2022-07-15T13:53:59;24.00;97.80
9975;DHT22;5028;50.974;4.968;2022-07-15T13:56:35;24.10;97.30
9975;DHT22;5028;50.974;4.968;2022-07-15T13:59:04;24.00;97.40
9975;DHT22;5028;50.974;4.968;2022-07-15T14:01:41;23.50;97.30
9975;DHT22;5028;50.974;4.968;2022-07-15T14:04:10;23.20;97.30
9975;DHT22;5028;50.974;4.968;2022-07-15T14:06:44;22.90;97.90
9975;DHT22;5028;50.974;4.968;2022-07-15T14:09:13;22.90;98.10
9975;DHT22;5028;50.974;4.968;2022-07-15T14:11:47;23.00;98.50
9975;DHT22;5028;50.974;4.968;2022-07-15T14:14:15;23.50;97.40
9975;DHT22;5028;50.974;4.968;2022-07-15T14:16:52;24.10;97.10
9975;DHT22;5028;50.974;4.968;2022-07-15T14:19:20;24.40;96.70
9975;DHT22;5028;50.974;4.968;2022-07-15T14:22:02;24.70;96.20
9975;DHT22;5028;50.974;4.968;2022-07-15T14:24:43;24.70;96.10
9975;DHT22;5028;50.974;4.968;2022-07-15T14:27:18;24.80;96.10
9975;DHT22;5028;50.974;4.968;2022-07-15T14:29:47;25.20;96.10
9975;DHT22;5028;50.974;4.968;2022-07-15T14:32:29;25.10;95.30
9975;DHT22;5028;50.974;4.968;2022-07-15T14:34:59;24.50;96.10
9975;DHT22;5028;50.974;4.968;2022-07-15T14:37:34;24.20;96.40
9975;DHT22;5028;50.974;4.968;2022-07-15T14:40:04;24.30;96.60
9975;DHT22;5028;50.974;4.968;2022-07-15T14:42:39;24.30;96.60
9975;DHT22;5028;50.974;4.968;2022-07-15T14:45:08;24.50;96.30
9975;DHT22;5028;50.974;4.968;2022-07-15T14:47:48;24.20;96.80
9975;DHT22;5028;50.974;4.968;2022-07-15T14:50:19;24.30;96.60
9975;DHT22;5028;50.974;4.968;2022-07-15T14:52:55;24.40;96.30
9975;DHT22;5028;50.974;4.968;2022-07-15T14:55:23;24.30;96.40
9975;DHT22;5028;50.974;4.968;2022-07-15T14:57:59;24.10;96.30
9975;DHT22;5028;50.974;4.968;2022-07-15T15:00:27;24.20;96.30
9975;DHT22;5028;50.974;4.968;2022-07-15T15:03:03;24.40;96.30
9975;DHT22;5028;50.974;4.968;2022-07-15T15:05:31;24.70;96.20
9975;DHT22;5028;50.974;4.968;2022-07-15T15:08:05;25.00;95.80
9975;DHT22;5028;50.974;4.968;2022-07-15T15:10:33;24.90;95.00
9975;DHT22;5028;50.974;4.968;2022-07-15T15:13:08;24.30;95.40
9975;DHT22;5028;50.974;4.968;2022-07-15T15:15:37;24.10;96.00
9975;DHT22;5028;50.974;4.968;2022-07-15T15:18:13;24.00;96.10
9975;DHT22;5028;50.974;4.968;2022-07-15T15:20:41;23.90;96.50
9975;DHT22;5028;50.974;4.968;2022-07-15T15:23:23;23.80;96.80
9975;DHT22;5028;50.974;4.968;2022-07-15T15:25:51;23.80;96.30
9975;DHT22;5028;50.974;4.968;2022-07-15T15:28:44;23.70;96.50
9975;DHT22;5028;50.974;4.968;2022-07-15T15:31:12;23.60;96.40
9975;DHT22;5028;50.974;4.968;2022-07-15T15:33:48;23.60;96.40
9975;DHT22;5028;50.974;4.968;2022-07-15T15:36:17;23.50;96.20
9975;DHT22;5028;50.974;4.968;2022-07-15T15:39:05;23.60;96.40
9975;DHT22;5028;50.974;4.968;2022-07-15T15:41:33;23.70;96.40
9975;DHT22;5028;50.974;4.968;2022-07-15T15:44:08;23.70;96.90
9975;DHT22;5028;50.974;4.968;2022-07-15T15:46:36;23.70;96.10
9975;DHT22;5028;50.974;4.968;2022-07-15T15:49:13;23.80;96.60
9975;DHT22;5028;50.974;4.968;2022-07-15T15:51:41;23.70;96.40
9975;DHT22;5028;50.974;4.968;2022-07-15T15:54:17;23.60;96.40
9975;DHT22;5028;50.974;4.968;2022-07-15T15:56:47;23.30;96.60
9975;DHT22;5028;50.974;4.968;2022-07-15T15:59:22;23.40;96.90
9975;DHT22;5028;50.974;4.968;2022-07-15T16:01:50;23.30;97.00
9975;DHT22;5028;50.974;4.968;2022-07-15T16:04:27;23.40;96.90
9975;DHT22;5028;50.974;4.968;2022-07-15T16:06:55;23.50;96.90
9975;DHT22;5028;50.974;4.968;2022-07-15T16:09:29;23.60;96.60
9975;DHT22;5028;50.974;4.968;2022-07-15T16:11:58;23.70;96.60
9975;DHT22;5028;50.974;4.968;2022-07-15T16:14:32;23.60;96.70
9975;DHT22;5028;50.974;4.968;2022-07-15T16:17:00;23.60;96.50
9975;DHT22;5028;50.974;4.968;2022-07-15T16:19:37;23.50;97.30
9975;DHT22;5028;50.974;4.968;2022-07-15T16:22:05;23.60;97.10
9975;DHT22;5028;50.974;4.968;2022-07-15T16:24:56;23.60;97.00
9975;DHT22;5028;50.974;4.968;2022-07-15T16:27:31;23.60;97.20
9975;DHT22;5028;50.974;4.968;2022-07-15T16:30:07;23.70;97.30
9975;DHT22;5028;50.974;4.968;2022-07-15T16:32:35;23.80;97.40
9975;DHT22;5028;50.974;4.968;2022-07-15T16:35:11;23.80;96.40
9975;DHT22;5028;50.974;4.968;2022-07-15T16:37:45;23.60;96.80
9975;DHT22;5028;50.974;4.968;2022-07-15T16:40:16;23.50;97.10
9975;DHT22;5028;50.974;4.968;2022-07-15T16:42:51;23.40;97.20
9975;DHT22;5028;50.974;4.968;2022-07-15T16:45:19;23.40;97.60
9975;DHT22;5028;50.974;4.968;2022-07-15T16:47:54;23.30;98.00